Temp: 17.4°C   Baro: 1015.9mb
  Wind: 0.9mph   Dir: SSW (207°)
  Rain: 0.6mm (0.0mm/hr)
  Solar: 594W/m2  Hum: 68%
 
Bath Spa Weather Station Historical Data
Daily Summary for August 03, 2020 Units:  Both    English   Metric
Daily Weekly Monthly Yearly Custom
  High: Low: Average:
Temperature: 67.3 °F /  19.6 °C 49.5 °F /  9.7 °C 59.1 °F /  15.1 °C
Dew Point: 54 °F /  12.2 °C 46 °F /  7.8 °C 50.3 °F /  10.2 °C
Humidity: 91% 55.6% 74%
Wind Speed: 8.6mph /  13.8km/h - 2.7mph /  4.3km/h
Wind Gust: 15mph /  24.1km/h - -
Wind- - WNW
Pressure: 30.07 in /  1018.2 hPa 30.00 in /  1015.8 hPa -
Precipitation: 0.00 in /  0 mm    
Historical Graphs
 
 
Tabular Data for August 03, 2020
Time Temperature Dew Point Pressure Wind Wind Speed Wind Gust Humidity Rainfall Rate (Hourly) solar
00:04 55.6 °F /  13.1 °C 51.1 °F /  10.6 °C 30.01in /  1016.1hPa Calm     85% 0.00in /  0mm 0 W/m2
00:09 55.6 °F /  13.1 °C 51.1 °F /  10.6 °C 30.01in /  1016.1hPa Calm     85% 0.00in /  0mm 0 W/m2
00:14 55.3 °F /  12.9 °C 50.8 °F /  10.4 °C 30.01in /  1016.1hPa Calm     85% 0.00in /  0mm 0 W/m2
00:19 55.2 °F /  12.9 °C 50.7 °F /  10.4 °C 30.01in /  1016.1hPa Calm     85.2% 0.00in /  0mm 0 W/m2
00:24 55 °F /  12.8 °C 50.9 °F /  10.5 °C 30.01in /  1016.1hPa Calm     86% 0.00in /  0mm 0 W/m2
00:29 55 °F /  12.8 °C 50.9 °F /  10.5 °C 30.01in /  1016.1hPa Calm     86% 0.00in /  0mm 0 W/m2
00:34 54.9 °F /  12.7 °C 50.7 °F /  10.4 °C 30.01in /  1016.1hPa Calm     86% 0.00in /  0mm 0 W/m2
00:39 54.9 °F /  12.7 °C 50.8 °F /  10.4 °C 30.01in /  1016.1hPa Calm     86.3% 0.00in /  0mm 0 W/m2
00:44 54.9 °F /  12.7 °C 51 °F /  10.6 °C 30.01in /  1016.1hPa NW 1.4mph /  2.3km/h 4mph /  6.4km/h 86.8% 0.00in /  0mm 0 W/m2
00:49 54.9 °F /  12.7 °C 51.1 °F /  10.6 °C 30.01in /  1016.1hPa NW 1.6mph /  2.6km/h 4mph /  6.4km/h 87% 0.00in /  0mm 0 W/m2
00:54 54.9 °F /  12.7 °C 51.1 °F /  10.6 °C 30.01in /  1016.1hPa NW 0.9mph /  1.4km/h 4mph /  6.4km/h 87% 0.00in /  0mm 0 W/m2
00:59 54.9 °F /  12.7 °C 51.1 °F /  10.6 °C 30.01in /  1016.1hPa NW 1.2mph /  1.9km/h 3mph /  4.8km/h 87% 0.00in /  0mm 0 W/m2
01:04 54.9 °F /  12.7 °C 51.1 °F /  10.6 °C 30.02in /  1016.5hPa Calm   1mph /  1.6km/h 87% 0.00in /  0mm 0 W/m2
01:09 54.7 °F /  12.6 °C 50.9 °F /  10.5 °C 30.02in /  1016.5hPa NW 0.4mph /  0.6km/h 3mph /  4.8km/h 87% 0.00in /  0mm 0 W/m2
01:14 54.7 °F /  12.6 °C 50.9 °F /  10.5 °C 30.02in /  1016.5hPa NW 0.2mph /  0.3km/h 3mph /  4.8km/h 87% 0.00in /  0mm 0 W/m2
01:19 54.7 °F /  12.6 °C 50.9 °F /  10.5 °C 30.02in /  1016.5hPa SSW 0.7mph /  1.1km/h 4mph /  6.4km/h 87% 0.00in /  0mm 0 W/m2
01:24 54.8 °F /  12.7 °C 51 °F /  10.6 °C 30.02in /  1016.5hPa South 1.6mph /  2.6km/h 5mph /  8km/h 87% 0.00in /  0mm 0 W/m2
01:29 54.8 °F /  12.7 °C 51 °F /  10.6 °C 30.02in /  1016.5hPa SSW 0.8mph /  1.3km/h 4mph /  6.4km/h 87% 0.00in /  0mm 0 W/m2
01:34 54.7 °F /  12.6 °C 50.7 °F /  10.4 °C 30.02in /  1016.5hPa SW 0.8mph /  1.3km/h 4mph /  6.4km/h 86.6% 0.00in /  0mm 0 W/m2
01:39 54.7 °F /  12.6 °C 50.5 °F /  10.3 °C 30.02in /  1016.5hPa SW 1.4mph /  2.3km/h 3mph /  4.8km/h 86% 0.00in /  0mm 0 W/m2
01:44 54.7 °F /  12.6 °C 50.5 °F /  10.3 °C 30.02in /  1016.5hPa SW 0.2mph /  0.3km/h 3mph /  4.8km/h 86% 0.00in /  0mm 0 W/m2
01:49 54.8 °F /  12.7 °C 50.3 °F /  10.2 °C 30.02in /  1016.5hPa SW 1.7mph /  2.7km/h 4mph /  6.4km/h 85.2% 0.00in /  0mm 0 W/m2
01:54 54.9 °F /  12.7 °C 50.3 °F /  10.2 °C 30.01in /  1016.1hPa SW 0.5mph /  0.8km/h 3mph /  4.8km/h 84.8% 0.00in /  0mm 0 W/m2
01:59 54.7 °F /  12.6 °C 50 °F /  10 °C 30.01in /  1016.1hPa SW 0.2mph /  0.3km/h 4mph /  6.4km/h 84% 0.00in /  0mm 0 W/m2
02:03 54.7 °F /  12.6 °C 50 °F /  10 °C 30.01in /  1016.1hPa Calm   1mph /  1.6km/h 84% 0.00in /  0mm 0 W/m2
02:09 54.6 °F /  12.6 °C 49.9 °F /  9.9 °C 30.01in /  1016.1hPa SW 0.2mph /  0.3km/h 4mph /  6.4km/h 84% 0.00in /  0mm 0 W/m2
02:14 54.5 °F /  12.5 °C 49.8 °F /  9.9 °C 30.01in /  1016.1hPa SW 0.6mph /  1km/h 3mph /  4.8km/h 84% 0.00in /  0mm 0 W/m2
02:19 54.3 °F /  12.4 °C 49.5 °F /  9.7 °C 30.01in /  1016.1hPa SW 0.6mph /  1km/h 3mph /  4.8km/h 83.8% 0.00in /  0mm 0 W/m2
02:24 54.3 °F /  12.4 °C 49.6 °F /  9.8 °C 30.01in /  1016.1hPa SW 0.8mph /  1.3km/h 2mph /  3.2km/h 84% 0.00in /  0mm 0 W/m2
02:29 54.2 °F /  12.3 °C 49.5 °F /  9.7 °C 30.01in /  1016.1hPa SW 0.2mph /  0.3km/h 3mph /  4.8km/h 84% 0.00in /  0mm 0 W/m2
02:34 54.1 °F /  12.3 °C 49.5 °F /  9.7 °C 30.01in /  1016.1hPa Calm     84% 0.00in /  0mm 0 W/m2
02:38 54 °F /  12.2 °C 49.3 °F /  9.6 °C 30.01in /  1016.1hPa Calm     84% 0.00in /  0mm 0 W/m2
02:44 54 °F /  12.2 °C 49.3 °F /  9.6 °C 30.01in /  1016.1hPa Calm   1mph /  1.6km/h 84% 0.00in /  0mm 0 W/m2
02:49 53.8 °F /  12.1 °C 49.1 °F /  9.5 °C 30.01in /  1016.1hPa Calm     84% 0.00in /  0mm 0 W/m2
02:54 53.6 °F /  12 °C 48.9 °F /  9.4 °C 30.01in /  1016.1hPa Calm     84% 0.00in /  0mm 0 W/m2
02:59 53.5 °F /  11.9 °C 48.9 °F /  9.4 °C 30.01in /  1016.1hPa Calm     84.4% 0.00in /  0mm 0 W/m2
03:04 53.4 °F /  11.9 °C 49.1 °F /  9.5 °C 30.01in /  1016.1hPa Calm     85% 0.00in /  0mm 0 W/m2
03:09 53.4 °F /  11.9 °C 49.1 °F /  9.5 °C 30.01in /  1016.1hPa Calm     85% 0.00in /  0mm 0 W/m2
03:13 53.2 °F /  11.8 °C 48.9 °F /  9.4 °C 30.01in /  1016.1hPa Calm     85% 0.00in /  0mm 0 W/m2
03:19 53.2 °F /  11.8 °C 48.9 °F /  9.4 °C 30.01in /  1016.1hPa Calm     85% 0.00in /  0mm 0 W/m2
03:24 53 °F /  11.7 °C 48.7 °F /  9.3 °C 30.01in /  1016.1hPa Calm     85% 0.00in /  0mm 0 W/m2
03:29 52.9 °F /  11.6 °C 48.6 °F /  9.2 °C 30.00in /  1015.8hPa Calm     85% 0.00in /  0mm 0 W/m2
03:34 52.8 °F /  11.6 °C 48.6 °F /  9.2 °C 30.01in /  1016.1hPa Calm     85.8% 0.00in /  0mm 0 W/m2
03:39 52.7 °F /  11.5 °C 48.6 °F /  9.2 °C 30.01in /  1016.1hPa Calm     86% 0.00in /  0mm 0 W/m2
03:44 52.5 °F /  11.4 °C 48.4 °F /  9.1 °C 30.01in /  1016.1hPa Calm     86% 0.00in /  0mm 0 W/m2
03:49 52.3 °F /  11.3 °C 48.2 °F /  9 °C 30.01in /  1016.1hPa Calm     86% 0.00in /  0mm 0 W/m2
03:54 52.1 °F /  11.2 °C 48 °F /  8.9 °C 30.01in /  1016.1hPa Calm     86% 0.00in /  0mm 0 W/m2
03:59 52 °F /  11.1 °C 48.2 °F /  9 °C 30.01in /  1016.1hPa Calm   1mph /  1.6km/h 87% 0.00in /  0mm 0 W/m2
04:04 51.8 °F /  11 °C 48 °F /  8.9 °C 30.01in /  1016.1hPa Calm     87% 0.00in /  0mm 0 W/m2
04:09 51.6 °F /  10.9 °C 47.8 °F /  8.8 °C 30.00in /  1015.8hPa Calm     87% 0.00in /  0mm 0 W/m2
04:14 51.4 °F /  10.8 °C 47.7 °F /  8.7 °C 30.01in /  1016.1hPa Calm     87% 0.00in /  0mm 0 W/m2
04:19 51.4 °F /  10.8 °C 47.8 °F /  8.8 °C 30.01in /  1016.1hPa Calm     87.4% 0.00in /  0mm 0 W/m2
04:24 51.4 °F /  10.8 °C 48 °F /  8.9 °C 30.01in /  1016.1hPa Calm     88% 0.00in /  0mm 0 W/m2
04:29 51.3 °F /  10.7 °C 47.8 °F /  8.8 °C 30.01in /  1016.1hPa Calm     88% 0.00in /  0mm 0 W/m2
04:34 51.4 °F /  10.8 °C 47.9 °F /  8.8 °C 30.01in /  1016.1hPa Calm     88% 0.00in /  0mm 0 W/m2
04:39 51.5 °F /  10.8 °C 48.1 °F /  8.9 °C 30.01in /  1016.1hPa Calm     88% 0.00in /  0mm 0 W/m2
04:44 51.5 °F /  10.8 °C 48.1 °F /  8.9 °C 30.01in /  1016.1hPa Calm     88% 0.00in /  0mm 0 W/m2
04:49 51.4 °F /  10.8 °C 47.9 °F /  8.8 °C 30.01in /  1016.1hPa Calm     88% 0.00in /  0mm 0 W/m2
04:54 51.1 °F /  10.6 °C 47.7 °F /  8.7 °C 30.01in /  1016.1hPa Calm     88% 0.00in /  0mm 0 W/m2
04:59 50.9 °F /  10.5 °C 47.5 °F /  8.6 °C 30.01in /  1016.1hPa Calm     88% 0.00in /  0mm 0 W/m2
05:04 50.7 °F /  10.4 °C 47.3 °F /  8.5 °C 30.01in /  1016.1hPa Calm     88% 0.00in /  0mm 0 W/m2
05:09 50.5 °F /  10.3 °C 47.1 °F /  8.4 °C 30.01in /  1016.1hPa Calm     88% 0.00in /  0mm 0 W/m2
05:14 50.4 °F /  10.2 °C 47.1 °F /  8.4 °C 30.01in /  1016.1hPa Calm     88.4% 0.00in /  0mm 0 W/m2
05:19 50.4 °F /  10.2 °C 47.3 °F /  8.5 °C 30.01in /  1016.1hPa Calm     89% 0.00in /  0mm 0 W/m2
05:24 50.4 °F /  10.2 °C 47.3 °F /  8.5 °C 30.01in /  1016.1hPa Calm     89% 0.00in /  0mm 0 W/m2
05:29 50.3 °F /  10.2 °C 47.2 °F /  8.4 °C 30.01in /  1016.1hPa Calm     89% 0.00in /  0mm 0 W/m2
05:34 50.1 °F /  10.1 °C 47 °F /  8.3 °C 30.01in /  1016.1hPa Calm     89% 0.00in /  0mm 0 W/m2
05:39 49.8 °F /  9.9 °C 46.8 °F /  8.2 °C 30.01in /  1016.1hPa Calm     89% 0.00in /  0mm 0 W/m2
05:44 49.8 °F /  9.9 °C 46.8 °F /  8.2 °C 30.01in /  1016.1hPa Calm     89% 0.00in /  0mm 5 W/m2
05:49 49.7 °F /  9.8 °C 46.7 °F /  8.2 °C 30.01in /  1016.1hPa Calm     89% 0.00in /  0mm 9 W/m2
05:54 49.6 °F /  9.8 °C 46.6 °F /  8.1 °C 30.01in /  1016.1hPa Calm     89% 0.00in /  0mm 11 W/m2
05:59 49.6 °F /  9.8 °C 46.8 °F /  8.2 °C 30.01in /  1016.1hPa Calm     89.8% 0.00in /  0mm 12 W/m2
06:04 49.5 °F /  9.7 °C 46.4 °F /  8 °C 30.01in /  1016.1hPa Calm     89.2% 0.00in /  0mm 16 W/m2
06:09 49.5 °F /  9.7 °C 46.6 °F /  8.1 °C 30.02in /  1016.5hPa Calm     90% 0.00in /  0mm 21 W/m2
06:14 49.5 °F /  9.7 °C 46.6 °F /  8.1 °C 30.02in /  1016.5hPa Calm     90% 0.00in /  0mm 25 W/m2
06:19 49.5 °F /  9.7 °C 46.7 °F /  8.2 °C 30.02in /  1016.5hPa Calm     90% 0.00in /  0mm 33 W/m2
06:24 49.7 °F /  9.8 °C 46.9 °F /  8.3 °C 30.02in /  1016.5hPa Calm     90% 0.00in /  0mm 40 W/m2
06:29 49.9 °F /  9.9 °C 47 °F /  8.3 °C 30.02in /  1016.5hPa Calm     90% 0.00in /  0mm 39 W/m2
06:34 50.2 °F /  10.1 °C 47.3 °F /  8.5 °C 30.02in /  1016.5hPa Calm     90% 0.00in /  0mm 42 W/m2
06:39 50.3 °F /  10.2 °C 47.4 °F /  8.6 °C 30.02in /  1016.5hPa Calm     90% 0.00in /  0mm 39 W/m2
06:44 50.4 °F /  10.2 °C 47.6 °F /  8.7 °C 30.02in /  1016.5hPa Calm     90% 0.00in /  0mm 40 W/m2
06:49 50.5 °F /  10.3 °C 47.7 °F /  8.7 °C 30.02in /  1016.5hPa Calm     90% 0.00in /  0mm 40 W/m2
06:54 50.7 °F /  10.4 °C 47.8 °F /  8.8 °C 30.02in /  1016.5hPa Calm     90% 0.00in /  0mm 40 W/m2
06:59 51 °F /  10.6 °C 48.4 °F /  9.1 °C 30.02in /  1016.5hPa Calm     90.8% 0.00in /  0mm 53 W/m2
07:04 51.2 °F /  10.7 °C 48.6 °F /  9.2 °C 30.02in /  1016.5hPa Calm     90.8% 0.00in /  0mm 53 W/m2
07:09 51.3 °F /  10.7 °C 48.7 °F /  9.3 °C 30.02in /  1016.5hPa Calm     90.8% 0.00in /  0mm 56 W/m2
07:14 51.4 °F /  10.8 °C 48.7 °F /  9.3 °C 30.02in /  1016.5hPa Calm     90.2% 0.00in /  0mm 67 W/m2
07:19 51.6 °F /  10.9 °C 49.1 °F /  9.5 °C 30.02in /  1016.5hPa Calm     91% 0.00in /  0mm 79 W/m2
07:24 51.8 °F /  11 °C 49.3 °F /  9.6 °C 30.02in /  1016.5hPa Calm     91% 0.00in /  0mm 91 W/m2
07:29 52.1 °F /  11.2 °C 49.3 °F /  9.6 °C 30.02in /  1016.5hPa SW 0.6mph /  1km/h 3mph /  4.8km/h 90.2% 0.00in /  0mm 107 W/m2
07:34 52.3 °F /  11.3 °C 49.8 °F /  9.9 °C 30.02in /  1016.5hPa SW 0.6mph /  1km/h 4mph /  6.4km/h 90.8% 0.00in /  0mm 125 W/m2
07:39 52.7 °F /  11.5 °C 49.8 °F /  9.9 °C 30.02in /  1016.5hPa SW 1.7mph /  2.7km/h 3mph /  4.8km/h 90% 0.00in /  0mm 137 W/m2
07:44 53 °F /  11.7 °C 50.1 °F /  10.1 °C 30.03in /  1016.8hPa SW 1.4mph /  2.3km/h 4mph /  6.4km/h 90% 0.00in /  0mm 155 W/m2
07:49 53.4 °F /  11.9 °C 50.5 °F /  10.3 °C 30.02in /  1016.5hPa SW 2.1mph /  3.4km/h 3mph /  4.8km/h 90% 0.00in /  0mm 171 W/m2
07:54 53.9 °F /  12.2 °C 51 °F /  10.6 °C 30.03in /  1016.8hPa WSW 2.6mph /  4.2km/h 5mph /  8km/h 90% 0.00in /  0mm 188 W/m2
07:59 54.1 °F /  12.3 °C 50.8 °F /  10.4 °C 30.02in /  1016.5hPa WSW 2.4mph /  3.9km/h 4mph /  6.4km/h 89% 0.00in /  0mm 202 W/m2
08:04 54.6 °F /  12.6 °C 51.3 °F /  10.7 °C 30.03in /  1016.8hPa WSW 1.2mph /  1.9km/h 4mph /  6.4km/h 88.6% 0.00in /  0mm 218 W/m2
08:09 55.1 °F /  12.8 °C 51.6 °F /  10.9 °C 30.03in /  1016.8hPa WSW 1.7mph /  2.7km/h 4mph /  6.4km/h 87.6% 0.00in /  0mm 234 W/m2
08:14 55.6 °F /  13.1 °C 51.6 °F /  10.9 °C 30.03in /  1016.8hPa WSW 1.7mph /  2.7km/h 4mph /  6.4km/h 86.5% 0.00in /  0mm 248 W/m2
08:19 56.2 °F /  13.4 °C 52 °F /  11.1 °C 30.03in /  1016.8hPa WSW 1.3mph /  2.1km/h 3mph /  4.8km/h 85.8% 0.00in /  0mm 267 W/m2
08:24 56.8 °F /  13.8 °C 52.2 °F /  11.2 °C 30.03in /  1016.8hPa West 1mph /  1.6km/h 4mph /  6.4km/h 84.6% 0.00in /  0mm 283 W/m2
08:29 57.4 °F /  14.1 °C 52.4 °F /  11.3 °C 30.03in /  1016.8hPa West 1.3mph /  2.1km/h 4mph /  6.4km/h 83.4% 0.00in /  0mm 299 W/m2
08:34 57.6 °F /  14.2 °C 52.3 °F /  11.3 °C 30.03in /  1016.8hPa West 3.7mph /  6km/h 6mph /  9.7km/h 82.2% 0.00in /  0mm 316 W/m2
08:39 57.6 °F /  14.2 °C 52 °F /  11.1 °C 30.03in /  1016.8hPa West 4.1mph /  6.6km/h 8mph /  12.9km/h 81.4% 0.00in /  0mm 330 W/m2
08:44 57.9 °F /  14.4 °C 52.4 °F /  11.3 °C 30.03in /  1016.8hPa West 2.1mph /  3.4km/h 5mph /  8km/h 81.6% 0.00in /  0mm 345 W/m2
08:47 58.3 °F /  14.6 °C 52.3 °F /  11.3 °C 30.03in /  1016.8hPa West 3.7mph /  6km/h 5mph /  8km/h 80.3% 0.00in /  0mm 355 W/m2
08:54 58.9 °F /  14.9 °C 52.4 °F /  11.3 °C 30.03in /  1016.8hPa West 3.2mph /  5.1km/h 5mph /  8km/h 79.2% 0.00in /  0mm 374 W/m2
08:59 59.4 °F /  15.2 °C 51.9 °F /  11.1 °C 30.03in /  1016.8hPa NW 3.3mph /  5.3km/h 8mph /  12.9km/h 76.2% 0.00in /  0mm 390 W/m2
09:04 59.4 °F /  15.2 °C 51.1 °F /  10.6 °C 30.03in /  1016.8hPa NW 4.5mph /  7.2km/h 9mph /  14.5km/h 73.8% 0.00in /  0mm 408 W/m2
09:09 59.6 °F /  15.3 °C 51.1 °F /  10.6 °C 30.03in /  1016.8hPa North 4.4mph /  7.1km/h 8mph /  12.9km/h 73.4% 0.00in /  0mm 422 W/m2
09:14 59.8 °F /  15.4 °C 51.2 °F /  10.7 °C 30.03in /  1016.8hPa NNW 3.2mph /  5.1km/h 9mph /  14.5km/h 73% 0.00in /  0mm 432 W/m2
09:19 60.1 °F /  15.6 °C 51.4 °F /  10.8 °C 30.03in /  1016.8hPa NW 3.7mph /  6km/h 8mph /  12.9km/h 73% 0.00in /  0mm 445 W/m2
09:24 60.2 °F /  15.7 °C 51.5 °F /  10.8 °C 30.03in /  1016.8hPa NW 3.7mph /  6km/h 7mph /  11.3km/h 73% 0.00in /  0mm 455 W/m2
09:29 60.4 °F /  15.8 °C 51.8 °F /  11 °C 30.03in /  1016.8hPa NW 4.6mph /  7.4km/h 9mph /  14.5km/h 73.2% 0.00in /  0mm 468 W/m2
09:34 60.6 °F /  15.9 °C 52 °F /  11.1 °C 30.03in /  1016.8hPa WNW 3.2mph /  5.1km/h 10mph /  16.1km/h 73% 0.00in /  0mm 480 W/m2
09:39 61.1 °F /  16.2 °C 51.8 °F /  11 °C 30.03in /  1016.8hPa NNW 4.5mph /  7.2km/h 8mph /  12.9km/h 71.6% 0.00in /  0mm 494 W/m2
09:44 61.1 °F /  16.2 °C 51.5 °F /  10.8 °C 30.03in /  1016.8hPa NNW 6mph /  9.7km/h 9mph /  14.5km/h 70.6% 0.00in /  0mm 508 W/m2
09:49 61.4 °F /  16.3 °C 51.3 °F /  10.7 °C 30.03in /  1016.8hPa NNE 4.1mph /  6.6km/h 10mph /  16.1km/h 69.4% 0.00in /  0mm 552 W/m2
09:54 62.3 °F /  16.8 °C 52 °F /  11.1 °C 30.03in /  1016.8hPa NW 1.8mph /  2.9km/h 10mph /  16.1km/h 68.8% 0.00in /  0mm 587 W/m2
09:59 62 °F /  16.7 °C 50.9 °F /  10.5 °C 30.03in /  1016.8hPa NNW 4.6mph /  7.4km/h 9mph /  14.5km/h 67.2% 0.00in /  0mm 601 W/m2
10:03 62.3 °F /  16.8 °C 51.1 °F /  10.6 °C 30.03in /  1016.8hPa NW 3mph /  4.8km/h 11mph /  17.7km/h 66.8% 0.00in /  0mm 613 W/m2
10:09 62.2 °F /  16.8 °C 50.6 °F /  10.3 °C 30.03in /  1016.8hPa NW 5.6mph /  9km/h 11mph /  17.7km/h 66% 0.00in /  0mm 654 W/m2
10:14 62.3 °F /  16.8 °C 52.1 °F /  11.2 °C 30.03in /  1016.8hPa West 3.1mph /  5km/h 9mph /  14.5km/h 69.2% 0.00in /  0mm 749 W/m2
10:19 62.8 °F /  17.1 °C 52.8 °F /  11.6 °C 30.03in /  1016.8hPa NW 2.8mph /  4.5km/h 10mph /  16.1km/h 69.8% 0.00in /  0mm 731 W/m2
10:24 62.2 °F /  16.8 °C 52.2 °F /  11.2 °C 30.03in /  1016.8hPa NW 5.4mph /  8.7km/h 12mph /  19.3km/h 69.8% 0.00in /  0mm 835 W/m2
10:29 63.3 °F /  17.4 °C 53.1 °F /  11.7 °C 30.03in /  1016.8hPa NW 3.9mph /  6.3km/h 10mph /  16.1km/h 69.2% 0.00in /  0mm 835 W/m2
10:34 63 °F /  17.2 °C 52.5 °F /  11.4 °C 30.03in /  1016.8hPa WNW 5.4mph /  8.7km/h 10mph /  16.1km/h 68.6% 0.00in /  0mm 835 W/m2
10:39 62.8 °F /  17.1 °C 52.5 °F /  11.4 °C 30.03in /  1016.8hPa WNW 1.7mph /  2.7km/h 7mph /  11.3km/h 69% 0.00in /  0mm 237 W/m2
10:44 62.6 °F /  17 °C 52.4 °F /  11.3 °C 30.03in /  1016.8hPa NW 3.7mph /  6km/h 8mph /  12.9km/h 69.2% 0.00in /  0mm 341 W/m2
10:49 62.5 °F /  16.9 °C 52.1 °F /  11.2 °C 30.03in /  1016.8hPa WNW 4.4mph /  7.1km/h 9mph /  14.5km/h 68.6% 0.00in /  0mm 341 W/m2
10:54 62.8 °F /  17.1 °C 52.4 °F /  11.3 °C 30.03in /  1016.8hPa WNW 4.1mph /  6.6km/h 8mph /  12.9km/h 68.8% 0.00in /  0mm 301 W/m2
10:59 62.7 °F /  17.1 °C 52.3 °F /  11.3 °C 30.03in /  1016.8hPa WNW 4.2mph /  6.8km/h 7mph /  11.3km/h 68.8% 0.00in /  0mm 301 W/m2
11:04 63.2 °F /  17.3 °C 52.8 °F /  11.6 °C 30.03in /  1016.8hPa NW 3.3mph /  5.3km/h 10mph /  16.1km/h 68.6% 0.00in /  0mm 824 W/m2
11:09 63.9 °F /  17.7 °C 52.9 °F /  11.6 °C 30.03in /  1016.8hPa NW 5.4mph /  8.7km/h 10mph /  16.1km/h 67.6% 0.00in /  0mm 824 W/m2
11:14 64.1 °F /  17.8 °C 52.8 °F /  11.6 °C 30.03in /  1016.8hPa NW 3.9mph /  6.3km/h 11mph /  17.7km/h 66.8% 0.00in /  0mm 905 W/m2
11:19 63.9 °F /  17.7 °C 52.9 °F /  11.6 °C 30.03in /  1016.8hPa NW 5.8mph /  9.3km/h 11mph /  17.7km/h 67.2% 0.00in /  0mm 905 W/m2
11:24 64.1 °F /  17.8 °C 52.9 °F /  11.6 °C 30.03in /  1016.8hPa WNW 4.1mph /  6.6km/h 9mph /  14.5km/h 66.8% 0.00in /  0mm 898 W/m2
11:29 63.5 °F /  17.5 °C 52.4 °F /  11.3 °C 30.03in /  1016.8hPa WNW 4.1mph /  6.6km/h 9mph /  14.5km/h 67.2% 0.00in /  0mm 158 W/m2
11:34 63.2 °F /  17.3 °C 52.6 °F /  11.4 °C 30.03in /  1016.8hPa WNW 3.7mph /  6km/h 9mph /  14.5km/h 68.4% 0.00in /  0mm 782 W/m2
11:39 64.3 °F /  17.9 °C 53.2 °F /  11.8 °C 30.03in /  1016.8hPa WNW 3.7mph /  6km/h 8mph /  12.9km/h 67% 0.00in /  0mm 795 W/m2
11:44 64.8 °F /  18.2 °C 52.7 °F /  11.5 °C 30.03in /  1016.8hPa West 7mph /  11.3km/h 14mph /  22.5km/h 65% 0.00in /  0mm 872 W/m2
11:49 64.6 °F /  18.1 °C 52.4 °F /  11.3 °C 30.03in /  1016.8hPa WNW 5.6mph /  9km/h 14mph /  22.5km/h 64.6% 0.00in /  0mm 872 W/m2
11:54 65.7 °F /  18.7 °C 52.3 °F /  11.3 °C 30.03in /  1016.8hPa West 6.5mph /  10.5km/h 12mph /  19.3km/h 62% 0.00in /  0mm 888 W/m2
11:58 66 °F /  18.9 °C 52.6 °F /  11.4 °C 30.03in /  1016.8hPa WNW 3.2mph /  5.1km/h 10mph /  16.1km/h 62% 0.00in /  0mm 926 W/m2
12:04 66.2 °F /  19 °C 53 °F /  11.7 °C 30.03in /  1016.8hPa NW 5.9mph /  9.5km/h 12mph /  19.3km/h 62.4% 0.00in /  0mm 923 W/m2
12:09 65.2 °F /  18.4 °C 51.9 °F /  11.1 °C 30.03in /  1016.8hPa NW 5.2mph /  8.4km/h 10mph /  16.1km/h 62% 0.00in /  0mm 953 W/m2
12:14 64.9 °F /  18.3 °C 51.5 °F /  10.8 °C 30.03in /  1016.8hPa WNW 4.4mph /  7.1km/h 10mph /  16.1km/h 61.8% 0.00in /  0mm 962 W/m2
12:19 64.8 °F /  18.2 °C 51 °F /  10.6 °C 30.03in /  1016.8hPa NW 6.6mph /  10.6km/h 12mph /  19.3km/h 60.8% 0.00in /  0mm 962 W/m2
12:24 65.6 °F /  18.7 °C 52.1 °F /  11.2 °C 30.03in /  1016.8hPa WNW 5.3mph /  8.5km/h 9mph /  14.5km/h 61.6% 0.00in /  0mm 998 W/m2
12:29 65.9 °F /  18.8 °C 52.4 °F /  11.3 °C 30.03in /  1016.8hPa NW 5.4mph /  8.7km/h 12mph /  19.3km/h 61.6% 0.00in /  0mm 352 W/m2
12:34 64.7 °F /  18.2 °C 51.6 °F /  10.9 °C 30.03in /  1016.8hPa NW 5.6mph /  9km/h 10mph /  16.1km/h 62.4% 0.00in /  0mm 281 W/m2
12:39 64.9 °F /  18.3 °C 51.2 °F /  10.7 °C 30.03in /  1016.8hPa NW 4.5mph /  7.2km/h 11mph /  17.7km/h 61.4% 0.00in /  0mm 318 W/m2
12:44 65.4 °F /  18.6 °C 50.8 °F /  10.4 °C 30.03in /  1016.8hPa NNW 4.9mph /  7.9km/h 9mph /  14.5km/h 59.2% 0.00in /  0mm 1083 W/m2
12:49 65.8 °F /  18.8 °C 50.2 °F /  10.1 °C 30.03in /  1016.8hPa WNW 3.9mph /  6.3km/h 10mph /  16.1km/h 57.2% 0.00in /  0mm 1083 W/m2
12:54 65.4 °F /  18.6 °C 50.8 °F /  10.4 °C 30.03in /  1016.8hPa WNW 6mph /  9.7km/h 11mph /  17.7km/h 59.3% 0.00in /  0mm 315 W/m2
12:59 64.9 °F /  18.3 °C 50.4 °F /  10.2 °C 30.03in /  1016.8hPa WNW 5.2mph /  8.4km/h 11mph /  17.7km/h 59.6% 0.00in /  0mm 371 W/m2
13:04 65 °F /  18.3 °C 50.6 °F /  10.3 °C 30.03in /  1016.8hPa NW 6mph /  9.7km/h 11mph /  17.7km/h 59.6% 0.00in /  0mm 371 W/m2
13:09 65.3 °F /  18.5 °C 51.4 °F /  10.8 °C 30.03in /  1016.8hPa WNW 3.3mph /  5.3km/h 11mph /  17.7km/h 60.6% 0.00in /  0mm 371 W/m2
13:14 66.7 °F /  19.3 °C 51.6 °F /  10.9 °C 30.03in /  1016.8hPa NNW 3.3mph /  5.3km/h 8mph /  12.9km/h 58.2% 0.00in /  0mm 371 W/m2
13:19 67.3 °F /  19.6 °C 50.9 °F /  10.5 °C 30.03in /  1016.8hPa West 4.4mph /  7.1km/h 9mph /  14.5km/h 55.6% 0.00in /  0mm 796 W/m2
13:24 67.1 °F /  19.5 °C 51.2 °F /  10.7 °C 30.03in /  1016.8hPa NW 5.9mph /  9.5km/h 15mph /  24.1km/h 56.6% 0.00in /  0mm 1009 W/m2
13:28 66.6 °F /  19.2 °C 50.9 °F /  10.5 °C 30.03in /  1016.8hPa NNW 4mph /  6.4km/h 9mph /  14.5km/h 57% 0.00in /  0mm 1009 W/m2
13:34 66.1 °F /  18.9 °C 51.2 °F /  10.7 °C 30.02in /  1016.5hPa NNW 4.5mph /  7.2km/h 7mph /  11.3km/h 58.8% 0.00in /  0mm 345 W/m2
13:39 65.7 °F /  18.7 °C 50.9 °F /  10.5 °C 30.02in /  1016.5hPa NW 3.3mph /  5.3km/h 9mph /  14.5km/h 59% 0.00in /  0mm 432 W/m2
13:44 66 °F /  18.9 °C 51.3 °F /  10.7 °C 30.02in /  1016.5hPa NW 4.6mph /  7.4km/h 12mph /  19.3km/h 59% 0.00in /  0mm 468 W/m2
13:49 66.2 °F /  19 °C 51.8 °F /  11 °C 30.02in /  1016.5hPa NW 5.4mph /  8.7km/h 12mph /  19.3km/h 59.6% 0.00in /  0mm 388 W/m2
13:54 65.7 °F /  18.7 °C 51.2 °F /  10.7 °C 30.02in /  1016.5hPa NNW 7.3mph /  11.7km/h 14mph /  22.5km/h 59.6% 0.00in /  0mm 320 W/m2
13:59 65.3 °F /  18.5 °C 51.1 °F /  10.6 °C 30.02in /  1016.5hPa NW 4.1mph /  6.6km/h 10mph /  16.1km/h 60% 0.00in /  0mm 334 W/m2
14:04 65.8 °F /  18.8 °C 51.3 °F /  10.7 °C 30.02in /  1016.5hPa NNW 5.4mph /  8.7km/h 12mph /  19.3km/h 59.6% 0.00in /  0mm 443 W/m2
14:09 65.5 °F /  18.6 °C 50.7 °F /  10.4 °C 30.02in /  1016.5hPa NNW 6.8mph /  10.9km/h 12mph /  19.3km/h 59% 0.00in /  0mm 443 W/m2
14:14 64.8 °F /  18.2 °C 49.8 °F /  9.9 °C 30.02in /  1016.5hPa NNW 5mph /  8km/h 14mph /  22.5km/h 58.4% 0.00in /  0mm 162 W/m2
14:19 64.1 °F /  17.8 °C 49.7 °F /  9.8 °C 30.02in /  1016.5hPa NW 6mph /  9.7km/h 14mph /  22.5km/h 59.4% 0.00in /  0mm 160 W/m2
14:24 64.2 °F /  17.9 °C 50 °F /  10 °C 30.02in /  1016.5hPa NNW 2.1mph /  3.4km/h 7mph /  11.3km/h 60% 0.00in /  0mm 220 W/m2
14:29 64.8 °F /  18.2 °C 49.9 °F /  9.9 °C 30.02in /  1016.5hPa NW 3.2mph /  5.1km/h 7mph /  11.3km/h 58.5% 0.00in /  0mm 230 W/m2
14:34 64.6 °F /  18.1 °C 50 °F /  10 °C 30.02in /  1016.5hPa NNW 4.7mph /  7.6km/h 9mph /  14.5km/h 59% 0.00in /  0mm 209 W/m2
14:39 64.6 °F /  18.1 °C 49.2 °F /  9.6 °C 30.02in /  1016.5hPa WNW 3.6mph /  5.8km/h 9mph /  14.5km/h 57.6% 0.00in /  0mm 158 W/m2
14:44 64.6 °F /  18.1 °C 49.1 °F /  9.5 °C 30.02in /  1016.5hPa NW 4.8mph /  7.7km/h 13mph /  20.9km/h 57.4% 0.00in /  0mm 179 W/m2
14:49 64.5 °F /  18.1 °C 49 °F /  9.4 °C 30.02in /  1016.5hPa WNW 4.5mph /  7.2km/h 10mph /  16.1km/h 57.2% 0.00in /  0mm 223 W/m2
14:54 64.4 °F /  18 °C 50.1 °F /  10.1 °C 30.02in /  1016.5hPa NW 5.5mph /  8.9km/h 9mph /  14.5km/h 59.6% 0.00in /  0mm 315 W/m2
14:59 64.8 °F /  18.2 °C 51.4 °F /  10.8 °C 30.02in /  1016.5hPa NW 2.7mph /  4.3km/h 8mph /  12.9km/h 61.8% 0.00in /  0mm 309 W/m2
15:04 65 °F /  18.3 °C 52 °F /  11.1 °C 30.02in /  1016.5hPa WNW 4.9mph /  7.9km/h 8mph /  12.9km/h 62.8% 0.00in /  0mm 288 W/m2
15:09 64.9 °F /  18.3 °C 52.5 °F /  11.4 °C 30.02in /  1016.5hPa West 5.2mph /  8.4km/h 14mph /  22.5km/h 64% 0.00in /  0mm 218 W/m2
15:14 64.8 °F /  18.2 °C 52.6 °F /  11.4 °C 30.02in /  1016.5hPa WNW 6.3mph /  10.1km/h 12mph /  19.3km/h 64.5% 0.00in /  0mm 195 W/m2
15:19 64.7 °F /  18.2 °C 51.3 °F /  10.7 °C 30.02in /  1016.5hPa West 5.2mph /  8.4km/h 11mph /  17.7km/h 61.8% 0.00in /  0mm 190 W/m2
15:24 64.6 °F /  18.1 °C 50.6 °F /  10.3 °C 30.02in /  1016.5hPa West 5.6mph /  9km/h 14mph /  22.5km/h 60.4% 0.00in /  0mm 213 W/m2
15:29 64.8 °F /  18.2 °C 50 °F /  10 °C 30.02in /  1016.5hPa NW 6.9mph /  11.1km/h 15mph /  24.1km/h 58.8% 0.00in /  0mm 246 W/m2
15:34 64.6 °F /  18.1 °C 49.5 °F /  9.7 °C 30.02in /  1016.5hPa WNW 7.1mph /  11.4km/h 11mph /  17.7km/h 58% 0.00in /  0mm 257 W/m2
15:39 64.7 °F /  18.2 °C 49.6 °F /  9.8 °C 30.02in /  1016.5hPa NW 6.8mph /  10.9km/h 10mph /  16.1km/h 58% 0.00in /  0mm 239 W/m2
15:44 64.8 °F /  18.2 °C 50.1 °F /  10.1 °C 30.02in /  1016.5hPa WNW 3.8mph /  6.1km/h 10mph /  16.1km/h 58.8% 0.00in /  0mm 218 W/m2
15:49 64.8 °F /  18.2 °C 50.2 °F /  10.1 °C 30.02in /  1016.5hPa NW 3.9mph /  6.3km/h 8mph /  12.9km/h 59% 0.00in /  0mm 197 W/m2
15:54 64.9 °F /  18.3 °C 51.1 °F /  10.6 °C 30.02in /  1016.5hPa West 4.2mph /  6.8km/h 8mph /  12.9km/h 61% 0.00in /  0mm 172 W/m2
15:59 64.7 °F /  18.2 °C 51.3 °F /  10.7 °C 30.02in /  1016.5hPa West 5.2mph /  8.4km/h 9mph /  14.5km/h 61.8% 0.00in /  0mm 171 W/m2
16:04 64.6 °F /  18.1 °C 51.3 °F /  10.7 °C 30.02in /  1016.5hPa WNW 6.8mph /  10.9km/h 11mph /  17.7km/h 62% 0.00in /  0mm 160 W/m2
16:08 64.4 °F /  18 °C 52.2 °F /  11.2 °C 30.02in /  1016.5hPa WNW 5.2mph /  8.4km/h 12mph /  19.3km/h 64.5% 0.00in /  0mm 139 W/m2
16:14 64.1 °F /  17.8 °C 52.7 °F /  11.5 °C 30.02in /  1016.5hPa NW 5.6mph /  9km/h 12mph /  19.3km/h 66.2% 0.00in /  0mm 141 W/m2
16:19 64 °F /  17.8 °C 52.8 °F /  11.6 °C 30.02in /  1016.5hPa WNW 6.1mph /  9.8km/h 11mph /  17.7km/h 67% 0.00in /  0mm 163 W/m2
16:24 63.9 °F /  17.7 °C 52.7 °F /  11.5 °C 30.02in /  1016.5hPa WNW 4.4mph /  7.1km/h 10mph /  16.1km/h 67% 0.00in /  0mm 174 W/m2
16:29 64 °F /  17.8 °C 52.9 °F /  11.6 °C 30.02in /  1016.5hPa WNW 5.8mph /  9.3km/h 11mph /  17.7km/h 67% 0.00in /  0mm 193 W/m2
16:34 64.1 °F /  17.8 °C 52.7 °F /  11.5 °C 30.02in /  1016.5hPa West 3.8mph /  6.1km/h 9mph /  14.5km/h 66.4% 0.00in /  0mm 206 W/m2
16:39 64.4 °F /  18 °C 53 °F /  11.7 °C 30.02in /  1016.5hPa WNW 2.8mph /  4.5km/h 7mph /  11.3km/h 66.2% 0.00in /  0mm 199 W/m2
16:44 64.6 °F /  18.1 °C 52.7 °F /  11.5 °C 30.02in /  1016.5hPa NW 3.4mph /  5.5km/h 11mph /  17.7km/h 65.6% 0.00in /  0mm 332 W/m2
16:49 64.9 °F /  18.3 °C 52.1 °F /  11.2 °C 30.02in /  1016.5hPa NW 6mph /  9.7km/h 12mph /  19.3km/h 63.4% 0.00in /  0mm 680 W/m2
16:54 65.7 °F /  18.7 °C 51.8 °F /  11 °C 30.02in /  1016.5hPa NW 6.3mph /  10.1km/h 12mph /  19.3km/h 61% 0.00in /  0mm 645 W/m2
16:59 66.2 °F /  19 °C 52.3 °F /  11.3 °C 30.02in /  1016.5hPa NNW 7.6mph /  12.2km/h 12mph /  19.3km/h 60.8% 0.00in /  0mm 619 W/m2
17:04 66.3 °F /  19.1 °C 52.2 °F /  11.2 °C 30.02in /  1016.5hPa NW 7.8mph /  12.6km/h 13mph /  20.9km/h 60.2% 0.00in /  0mm 566 W/m2
17:09 66 °F /  18.9 °C 51.8 °F /  11 °C 30.02in /  1016.5hPa WNW 6.2mph /  10km/h 11mph /  17.7km/h 60% 0.00in /  0mm 547 W/m2
17:14 65.6 °F /  18.7 °C 51.4 °F /  10.8 °C 30.01in /  1016.1hPa NW 5mph /  8km/h 8mph /  12.9km/h 60% 0.00in /  0mm 97 W/m2
17:19 65.3 °F /  18.5 °C 51.1 °F /  10.6 °C 30.02in /  1016.5hPa WNW 3.7mph /  6km/h 8mph /  12.9km/h 60.2% 0.00in /  0mm 512 W/m2
17:24 65.7 °F /  18.7 °C 51.9 °F /  11.1 °C 30.02in /  1016.5hPa WNW 5.3mph /  8.5km/h 9mph /  14.5km/h 61% 0.00in /  0mm 520 W/m2
17:29 66.1 °F /  18.9 °C 52 °F /  11.1 °C 30.01in /  1016.1hPa NW 4.7mph /  7.6km/h 11mph /  17.7km/h 60.2% 0.00in /  0mm 564 W/m2
17:34 66.6 °F /  19.2 °C 52 °F /  11.1 °C 30.01in /  1016.1hPa WNW 7mph /  11.3km/h 12mph /  19.3km/h 59.6% 0.00in /  0mm 578 W/m2
17:39 66.5 °F /  19.2 °C 52.4 °F /  11.3 °C 30.02in /  1016.5hPa WNW 7mph /  11.3km/h 13mph /  20.9km/h 60.6% 0.00in /  0mm 531 W/m2
17:44 66.1 °F /  18.9 °C 52.1 °F /  11.2 °C 30.01in /  1016.1hPa WNW 6.2mph /  10km/h 12mph /  19.3km/h 60.6% 0.00in /  0mm 517 W/m2
17:49 66.7 °F /  19.3 °C 52.2 °F /  11.2 °C 30.01in /  1016.1hPa WNW 5.4mph /  8.7km/h 13mph /  20.9km/h 59.8% 0.00in /  0mm 483 W/m2
17:54 66.9 °F /  19.4 °C 52.2 °F /  11.2 °C 30.01in /  1016.1hPa WNW 7.5mph /  12.1km/h 13mph /  20.9km/h 59% 0.00in /  0mm 457 W/m2
17:59 66.4 °F /  19.1 °C 52.2 °F /  11.2 °C 30.02in /  1016.5hPa WNW 5.3mph /  8.5km/h 11mph /  17.7km/h 60% 0.00in /  0mm 436 W/m2
18:04 65.5 °F /  18.6 °C 52.4 °F /  11.3 °C 30.02in /  1016.5hPa WNW 4.5mph /  7.2km/h 9mph /  14.5km/h 62.8% 0.00in /  0mm 91 W/m2
18:09 65.6 °F /  18.7 °C 52.4 °F /  11.3 °C 30.01in /  1016.1hPa NW 5.8mph /  9.3km/h 11mph /  17.7km/h 62.4% 0.00in /  0mm 436 W/m2
18:14 66.3 °F /  19.1 °C 52.2 °F /  11.2 °C 30.01in /  1016.1hPa WNW 7mph /  11.3km/h 12mph /  19.3km/h 60.2% 0.00in /  0mm 390 W/m2
18:19 66.6 °F /  19.2 °C 51.8 °F /  11 °C 30.01in /  1016.1hPa WNW 6.4mph /  10.3km/h 13mph /  20.9km/h 59.2% 0.00in /  0mm 376 W/m2
18:24 66.5 °F /  19.2 °C 52.1 °F /  11.2 °C 30.02in /  1016.5hPa West 6.8mph /  10.9km/h 13mph /  20.9km/h 59.8% 0.00in /  0mm 350 W/m2
18:29 66.3 °F /  19.1 °C 52.2 °F /  11.2 °C 30.02in /  1016.5hPa WNW 7.8mph /  12.6km/h 15mph /  24.1km/h 60.4% 0.00in /  0mm 334 W/m2
18:34 66 °F /  18.9 °C 51.8 °F /  11 °C 30.01in /  1016.1hPa WNW 7.2mph /  11.6km/h 12mph /  19.3km/h 60% 0.00in /  0mm 322 W/m2
18:39 65.8 °F /  18.8 °C 51.4 °F /  10.8 °C 30.01in /  1016.1hPa WNW 7.6mph /  12.2km/h 13mph /  20.9km/h 59.6% 0.00in /  0mm 306 W/m2
18:44 66 °F /  18.9 °C 52.2 °F /  11.2 °C 30.02in /  1016.5hPa WNW 5.8mph /  9.3km/h 12mph /  19.3km/h 61% 0.00in /  0mm 297 W/m2
18:49 65.9 °F /  18.8 °C 52.8 °F /  11.6 °C 30.01in /  1016.1hPa WNW 8.2mph /  13.2km/h 15mph /  24.1km/h 62.5% 0.00in /  0mm 292 W/m2
18:54 65.7 °F /  18.7 °C 53.8 °F /  12.1 °C 30.02in /  1016.5hPa WNW 5.8mph /  9.3km/h 14mph /  22.5km/h 65.4% 0.00in /  0mm 274 W/m2
18:59 65.1 °F /  18.4 °C 54 °F /  12.2 °C 30.02in /  1016.5hPa West 7.4mph /  11.9km/h 15mph /  24.1km/h 67% 0.00in /  0mm 260 W/m2
19:04 64.9 °F /  18.3 °C 53.9 °F /  12.2 °C 30.02in /  1016.5hPa WNW 8.6mph /  13.8km/h 14mph /  22.5km/h 67.2% 0.00in /  0mm 243 W/m2
19:09 64.9 °F /  18.3 °C 53.2 °F /  11.8 °C 30.02in /  1016.5hPa West 8mph /  12.9km/h 15mph /  24.1km/h 66% 0.00in /  0mm 221 W/m2
19:14 64.6 °F /  18.1 °C 53.2 °F /  11.8 °C 30.02in /  1016.5hPa West 6.7mph /  10.8km/h 12mph /  19.3km/h 66.6% 0.00in /  0mm 197 W/m2
19:19 64.8 °F /  18.2 °C 53.5 °F /  11.9 °C 30.02in /  1016.5hPa West 6.4mph /  10.3km/h 11mph /  17.7km/h 66.8% 0.00in /  0mm 186 W/m2
19:24 64.8 °F /  18.2 °C 53.7 °F /  12.1 °C 30.02in /  1016.5hPa West 4.7mph /  7.6km/h 10mph /  16.1km/h 67% 0.00in /  0mm 160 W/m2
19:29 64.7 °F /  18.2 °C 53.2 °F /  11.8 °C 30.02in /  1016.5hPa West 7.4mph /  11.9km/h 12mph /  19.3km/h 66.4% 0.00in /  0mm 156 W/m2
19:34 64.2 °F /  17.9 °C 53.1 °F /  11.7 °C 30.02in /  1016.5hPa WNW 6.3mph /  10.1km/h 12mph /  19.3km/h 67% 0.00in /  0mm 141 W/m2
19:39 64.2 °F /  17.9 °C 53.1 °F /  11.7 °C 30.02in /  1016.5hPa West 4.3mph /  6.9km/h 12mph /  19.3km/h 67% 0.00in /  0mm 127 W/m2
19:43 64.3 °F /  17.9 °C 53.2 °F /  11.8 °C 30.02in /  1016.5hPa West 6.8mph /  10.9km/h 12mph /  19.3km/h 67.3% 0.00in /  0mm 113 W/m2
19:49 64.2 °F /  17.9 °C 52.7 °F /  11.5 °C 30.02in /  1016.5hPa WNW 4.2mph /  6.8km/h 10mph /  16.1km/h 66% 0.00in /  0mm 100 W/m2
19:54 64.3 °F /  17.9 °C 52.5 °F /  11.4 °C 30.03in /  1016.8hPa West 3.4mph /  5.5km/h 8mph /  12.9km/h 65.4% 0.00in /  0mm 86 W/m2
19:59 64.3 °F /  17.9 °C 52.3 °F /  11.3 °C 30.03in /  1016.8hPa WNW 3.4mph /  5.5km/h 8mph /  12.9km/h 65.2% 0.00in /  0mm 72 W/m2
20:04 63.9 °F /  17.7 °C 52.4 °F /  11.3 °C 30.03in /  1016.8hPa West 4.5mph /  7.2km/h 9mph /  14.5km/h 66% 0.00in /  0mm 56 W/m2
20:09 63.4 °F /  17.4 °C 52.2 °F /  11.2 °C 30.03in /  1016.8hPa WNW 3.3mph /  5.3km/h 9mph /  14.5km/h 66.6% 0.00in /  0mm 33 W/m2
20:13 63.1 °F /  17.3 °C 52.2 °F /  11.2 °C 30.03in /  1016.8hPa WNW 3.2mph /  5.1km/h 9mph /  14.5km/h 67.5% 0.00in /  0mm 23 W/m2
20:19 62.6 °F /  17 °C 52.1 °F /  11.2 °C 30.03in /  1016.8hPa WNW 3.8mph /  6.1km/h 5mph /  8km/h 68.4% 0.00in /  0mm 16 W/m2
20:24 62.3 °F /  16.8 °C 52.1 °F /  11.2 °C 30.03in /  1016.8hPa WNW 2.4mph /  3.9km/h 6mph /  9.7km/h 69% 0.00in /  0mm 14 W/m2
20:29 62 °F /  16.7 °C 51.9 °F /  11.1 °C 30.03in /  1016.8hPa WNW 2.1mph /  3.4km/h 6mph /  9.7km/h 69.6% 0.00in /  0mm 12 W/m2
20:34 61.8 °F /  16.6 °C 51.9 °F /  11.1 °C 30.03in /  1016.8hPa WNW 2mph /  3.2km/h 5mph /  8km/h 70% 0.00in /  0mm 11 W/m2
20:39 61.4 °F /  16.3 °C 51.5 °F /  10.8 °C 30.03in /  1016.8hPa WNW 2.9mph /  4.7km/h 6mph /  9.7km/h 70% 0.00in /  0mm 11 W/m2
20:44 61.2 °F /  16.2 °C 51.3 °F /  10.7 °C 30.03in /  1016.8hPa WNW 3.2mph /  5.1km/h 6mph /  9.7km/h 70% 0.00in /  0mm 7 W/m2
20:49 60.9 °F /  16.1 °C 51.1 °F /  10.6 °C 30.03in /  1016.8hPa WNW 2.4mph /  3.9km/h 5mph /  8km/h 70.2% 0.00in /  0mm 5 W/m2
20:54 60.5 °F /  15.8 °C 51.1 °F /  10.6 °C 30.03in /  1016.8hPa WNW 2mph /  3.2km/h 4mph /  6.4km/h 71% 0.00in /  0mm 0 W/m2
20:59 60.3 °F /  15.7 °C 50.4 °F /  10.2 °C 30.04in /  1017.2hPa WNW 0.6mph /  1km/h 4mph /  6.4km/h 70% 0.00in /  0mm 0 W/m2
21:04 60.1 °F /  15.6 °C 49.3 °F /  9.6 °C 30.04in /  1017.2hPa WNW 2.2mph /  3.5km/h 4mph /  6.4km/h 67.4% 0.00in /  0mm 0 W/m2
21:09 60 °F /  15.6 °C 48.9 °F /  9.4 °C 30.04in /  1017.2hPa Calm   2mph /  3.2km/h 66.8% 0.00in /  0mm 0 W/m2
21:14 59.7 °F /  15.4 °C 48.7 °F /  9.3 °C 30.05in /  1017.5hPa Calm     67% 0.00in /  0mm 0 W/m2
21:19 59.5 °F /  15.3 °C 48.8 °F /  9.3 °C 30.05in /  1017.5hPa Calm     67.8% 0.00in /  0mm 0 W/m2
21:24 59.4 °F /  15.2 °C 49.2 °F /  9.6 °C 30.05in /  1017.5hPa Calm     69% 0.00in /  0mm 0 W/m2
21:29 59 °F /  15 °C 48.9 °F /  9.4 °C 30.05in /  1017.5hPa WNW 0.2mph /  0.3km/h 2mph /  3.2km/h 69% 0.00in /  0mm 0 W/m2
21:34 58.6 °F /  14.8 °C 48.8 °F /  9.3 °C 30.05in /  1017.5hPa WNW 0.2mph /  0.3km/h 2mph /  3.2km/h 69.8% 0.00in /  0mm 0 W/m2
21:39 58.3 °F /  14.6 °C 48.5 °F /  9.2 °C 30.05in /  1017.5hPa WNW 1.2mph /  1.9km/h 3mph /  4.8km/h 69.8% 0.00in /  0mm 0 W/m2
21:44 57.9 °F /  14.4 °C 48.2 °F /  9 °C 30.05in /  1017.5hPa Calm   2mph /  3.2km/h 70% 0.00in /  0mm 0 W/m2
21:49 57.7 °F /  14.3 °C 48 °F /  8.9 °C 30.05in /  1017.5hPa Calm     70% 0.00in /  0mm 0 W/m2
21:54 57.6 °F /  14.2 °C 48 °F /  8.9 °C 30.05in /  1017.5hPa Calm     70.4% 0.00in /  0mm 0 W/m2
21:59 57.4 °F /  14.1 °C 48 °F /  8.9 °C 30.05in /  1017.5hPa Calm     71% 0.00in /  0mm 0 W/m2
22:04 57.1 °F /  13.9 °C 47.7 °F /  8.7 °C 30.06in /  1017.8hPa Calm     71% 0.00in /  0mm 0 W/m2
22:09 56.8 °F /  13.8 °C 47.7 °F /  8.7 °C 30.06in /  1017.8hPa Calm     71.6% 0.00in /  0mm 0 W/m2
22:14 56.7 °F /  13.7 °C 47.7 °F /  8.7 °C 30.06in /  1017.8hPa Calm     72% 0.00in /  0mm 0 W/m2
22:19 56.5 °F /  13.6 °C 47.5 °F /  8.6 °C 30.06in /  1017.8hPa Calm     72% 0.00in /  0mm 0 W/m2
22:24 56.2 °F /  13.4 °C 47.6 °F /  8.7 °C 30.06in /  1017.8hPa Calm     72.6% 0.00in /  0mm 0 W/m2
22:29 55.9 °F /  13.3 °C 47.5 °F /  8.6 °C 30.06in /  1017.8hPa Calm     73% 0.00in /  0mm 0 W/m2
22:34 55.7 °F /  13.2 °C 47.2 °F /  8.4 °C 30.06in /  1017.8hPa Calm     73% 0.00in /  0mm 0 W/m2
22:39 55.5 °F /  13.1 °C 47 °F /  8.3 °C 30.06in /  1017.8hPa Calm     73% 0.00in /  0mm 0 W/m2
22:44 55.3 °F /  12.9 °C 46.8 °F /  8.2 °C 30.06in /  1017.8hPa Calm     73% 0.00in /  0mm 0 W/m2
22:49 55.2 °F /  12.9 °C 46.8 °F /  8.2 °C 30.06in /  1017.8hPa Calm     73% 0.00in /  0mm 0 W/m2
22:54 55 °F /  12.8 °C 46.8 °F /  8.2 °C 30.06in /  1017.8hPa Calm     73.6% 0.00in /  0mm 0 W/m2
22:59 55 °F /  12.8 °C 46.9 °F /  8.3 °C 30.06in /  1017.8hPa WNW 0.2mph /  0.3km/h 2mph /  3.2km/h 74% 0.00in /  0mm 0 W/m2
23:04 54.9 °F /  12.7 °C 46.8 °F /  8.2 °C 30.07in /  1018.2hPa WNW 0.5mph /  0.8km/h 3mph /  4.8km/h 74% 0.00in /  0mm 0 W/m2
23:09 54.7 °F /  12.6 °C 46.6 °F /  8.1 °C 30.07in /  1018.2hPa WNW 0.4mph /  0.6km/h 3mph /  4.8km/h 74% 0.00in /  0mm 0 W/m2
23:14 54.6 °F /  12.6 °C 46.5 °F /  8.1 °C 30.07in /  1018.2hPa Calm     74% 0.00in /  0mm 0 W/m2
23:19 54.5 °F /  12.5 °C 46.4 °F /  8 °C 30.07in /  1018.2hPa Calm     74% 0.00in /  0mm 0 W/m2
23:24 54.4 °F /  12.4 °C 46.3 °F /  7.9 °C 30.07in /  1018.2hPa Calm     74% 0.00in /  0mm 0 W/m2
23:29 54.3 °F /  12.4 °C 46.6 °F /  8.1 °C 30.07in /  1018.2hPa Calm     75% 0.00in /  0mm 0 W/m2
23:34 54.3 °F /  12.4 °C 46.6 °F /  8.1 °C 30.07in /  1018.2hPa Calm     75% 0.00in /  0mm 0 W/m2
23:39 54.1 °F /  12.3 °C 46.4 °F /  8 °C 30.07in /  1018.2hPa Calm     75% 0.00in /  0mm 0 W/m2
23:44 54.1 °F /  12.3 °C 46.4 °F /  8 °C 30.07in /  1018.2hPa Calm     75% 0.00in /  0mm 0 W/m2
23:49 54 °F /  12.2 °C 46.2 °F /  7.9 °C 30.07in /  1018.2hPa Calm     75% 0.00in /  0mm 0 W/m2
23:54 54 °F /  12.2 °C 46.2 °F /  7.9 °C 30.07in /  1018.2hPa Calm     75% 0.00in /  0mm 0 W/m2
23:59 53.7 °F /  12.1 °C 46 °F /  7.8 °C 30.07in /  1018.2hPa Calm     75% 0.00in /  0mm 0 W/m2
Bath Spa Weather
Compliments of Weather Underground - 2 mb